sensor_id;sensor_type;location;lat;lon;timestamp;temperature;humidity
22450;DHT22;11392;57.390;-2.468;2022-08-19T00:01:53;12.60;99.90
22450;DHT22;11392;57.390;-2.468;2022-08-19T00:04:23;12.60;99.90
22450;DHT22;11392;57.390;-2.468;2022-08-19T00:06:51;12.60;99.90
22450;DHT22;11392;57.390;-2.468;2022-08-19T00:09:21;12.60;99.90
22450;DHT22;11392;57.390;-2.468;2022-08-19T00:11:48;12.70;99.90
22450;DHT22;11392;57.390;-2.468;2022-08-19T00:14:16;12.60;99.90
22450;DHT22;11392;57.390;-2.468;2022-08-19T00:16:45;12.60;99.90
22450;DHT22;11392;57.390;-2.468;2022-08-19T00:19:13;12.50;99.90
22450;DHT22;11392;57.390;-2.468;2022-08-19T00:21:40;12.50;99.90
22450;DHT22;11392;57.390;-2.468;2022-08-19T00:24:09;12.50;99.90
22450;DHT22;11392;57.390;-2.468;2022-08-19T00:26:37;12.50;99.90
22450;DHT22;11392;57.390;-2.468;2022-08-19T00:29:06;12.40;99.90
22450;DHT22;11392;57.390;-2.468;2022-08-19T00:31:33;12.30;99.90
22450;DHT22;11392;57.390;-2.468;2022-08-19T00:34:01;12.30;99.90
22450;DHT22;11392;57.390;-2.468;2022-08-19T00:36:28;12.20;99.90
22450;DHT22;11392;57.390;-2.468;2022-08-19T00:38:56;12.20;99.90
22450;DHT22;11392;57.390;-2.468;2022-08-19T00:41:24;12.10;99.90
22450;DHT22;11392;57.390;-2.468;2022-08-19T00:46:26;12.00;99.90
22450;DHT22;11392;57.390;-2.468;2022-08-19T00:48:54;12.00;99.90
22450;DHT22;11392;57.390;-2.468;2022-08-19T00:51:23;11.90;99.90
22450;DHT22;11392;57.390;-2.468;2022-08-19T00:53:52;11.90;99.90
22450;DHT22;11392;57.390;-2.468;2022-08-19T00:56:19;11.80;99.90
22450;DHT22;11392;57.390;-2.468;2022-08-19T00:58:46;11.90;99.90
22450;DHT22;11392;57.390;-2.468;2022-08-19T01:01:13;11.80;99.90
22450;DHT22;11392;57.390;-2.468;2022-08-19T01:03:41;11.70;99.90
22450;DHT22;11392;57.390;-2.468;2022-08-19T01:06:24;11.60;99.90
22450;DHT22;11392;57.390;-2.468;2022-08-19T01:08:52;11.50;99.90
22450;DHT22;11392;57.390;-2.468;2022-08-19T01:11:19;11.50;99.90
22450;DHT22;11392;57.390;-2.468;2022-08-19T01:13:46;11.40;99.90
22450;DHT22;11392;57.390;-2.468;2022-08-19T01:16:17;11.30;99.90
22450;DHT22;11392;57.390;-2.468;2022-08-19T01:18:45;11.20;99.90
22450;DHT22;11392;57.390;-2.468;2022-08-19T01:23:48;11.10;99.90
22450;DHT22;11392;57.390;-2.468;2022-08-19T01:26:20;11.10;99.90
22450;DHT22;11392;57.390;-2.468;2022-08-19T01:28:51;11.00;99.90
22450;DHT22;11392;57.390;-2.468;2022-08-19T01:31:22;10.90;99.90
22450;DHT22;11392;57.390;-2.468;2022-08-19T01:33:54;10.90;99.90
22450;DHT22;11392;57.390;-2.468;2022-08-19T01:36:35;11.00;99.90
22450;DHT22;11392;57.390;-2.468;2022-08-19T01:39:06;11.00;99.90
22450;DHT22;11392;57.390;-2.468;2022-08-19T01:41:34;11.00;99.90
22450;DHT22;11392;57.390;-2.468;2022-08-19T01:44:01;11.10;99.90
22450;DHT22;11392;57.390;-2.468;2022-08-19T01:46:47;11.20;99.90
22450;DHT22;11392;57.390;-2.468;2022-08-19T01:49:15;11.20;99.90
22450;DHT22;11392;57.390;-2.468;2022-08-19T01:51:42;11.30;99.90
22450;DHT22;11392;57.390;-2.468;2022-08-19T01:54:12;11.40;99.90
22450;DHT22;11392;57.390;-2.468;2022-08-19T01:56:50;11.40;99.90
22450;DHT22;11392;57.390;-2.468;2022-08-19T01:59:21;11.20;99.90
22450;DHT22;11392;57.390;-2.468;2022-08-19T02:01:49;11.10;99.90
22450;DHT22;11392;57.390;-2.468;2022-08-19T02:04:16;11.10;99.90
22450;DHT22;11392;57.390;-2.468;2022-08-19T02:06:43;11.10;99.90
22450;DHT22;11392;57.390;-2.468;2022-08-19T02:09:10;11.20;99.90
22450;DHT22;11392;57.390;-2.468;2022-08-19T02:11:37;11.20;99.90
22450;DHT22;11392;57.390;-2.468;2022-08-19T02:14:06;11.30;99.90
22450;DHT22;11392;57.390;-2.468;2022-08-19T02:16:36;11.10;99.90
22450;DHT22;11392;57.390;-2.468;2022-08-19T02:19:03;11.10;99.90
22450;DHT22;11392;57.390;-2.468;2022-08-19T02:21:31;11.10;99.90
22450;DHT22;11392;57.390;-2.468;2022-08-19T02:23:58;11.10;99.90
22450;DHT22;11392;57.390;-2.468;2022-08-19T02:26:25;11.20;99.90
22450;DHT22;11392;57.390;-2.468;2022-08-19T02:28:54;11.20;99.90
22450;DHT22;11392;57.390;-2.468;2022-08-19T02:31:23;11.10;99.90
22450;DHT22;11392;57.390;-2.468;2022-08-19T02:33:51;11.00;99.90
22450;DHT22;11392;57.390;-2.468;2022-08-19T02:36:24;11.00;99.90
22450;DHT22;11392;57.390;-2.468;2022-08-19T02:38:51;10.90;99.90
22450;DHT22;11392;57.390;-2.468;2022-08-19T02:41:32;10.80;99.90
22450;DHT22;11392;57.390;-2.468;2022-08-19T02:44:01;10.90;99.90
22450;DHT22;11392;57.390;-2.468;2022-08-19T02:46:48;10.90;99.90
22450;DHT22;11392;57.390;-2.468;2022-08-19T02:49:17;10.90;99.90
22450;DHT22;11392;57.390;-2.468;2022-08-19T02:51:46;10.90;99.90
22450;DHT22;11392;57.390;-2.468;2022-08-19T02:54:14;11.00;99.90
22450;DHT22;11392;57.390;-2.468;2022-08-19T02:56:43;11.00;99.90
22450;DHT22;11392;57.390;-2.468;2022-08-19T02:59:10;10.80;99.90
22450;DHT22;11392;57.390;-2.468;2022-08-19T03:01:40;10.80;99.90
22450;DHT22;11392;57.390;-2.468;2022-08-19T03:04:10;10.80;99.90
22450;DHT22;11392;57.390;-2.468;2022-08-19T03:06:39;10.80;99.90
22450;DHT22;11392;57.390;-2.468;2022-08-19T03:09:06;10.80;99.90
22450;DHT22;11392;57.390;-2.468;2022-08-19T03:11:34;10.70;99.90
22450;DHT22;11392;57.390;-2.468;2022-08-19T03:14:03;10.80;99.90
22450;DHT22;11392;57.390;-2.468;2022-08-19T03:16:33;10.90;99.90
22450;DHT22;11392;57.390;-2.468;2022-08-19T03:19:01;10.90;99.90
22450;DHT22;11392;57.390;-2.468;2022-08-19T03:21:32;10.90;99.90
22450;DHT22;11392;57.390;-2.468;2022-08-19T03:24:03;10.90;99.90
22450;DHT22;11392;57.390;-2.468;2022-08-19T03:26:31;10.80;99.90
22450;DHT22;11392;57.390;-2.468;2022-08-19T03:29:02;10.70;99.90
22450;DHT22;11392;57.390;-2.468;2022-08-19T03:31:31;10.50;99.90
22450;DHT22;11392;57.390;-2.468;2022-08-19T03:34:20;10.40;99.90
22450;DHT22;11392;57.390;-2.468;2022-08-19T03:36:47;10.30;99.90
22450;DHT22;11392;57.390;-2.468;2022-08-19T03:39:15;10.20;99.90
22450;DHT22;11392;57.390;-2.468;2022-08-19T03:41:44;10.10;99.90
22450;DHT22;11392;57.390;-2.468;2022-08-19T03:44:15;10.00;99.90
22450;DHT22;11392;57.390;-2.468;2022-08-19T03:46:48;10.00;99.90
22450;DHT22;11392;57.390;-2.468;2022-08-19T03:49:16;10.00;99.90
22450;DHT22;11392;57.390;-2.468;2022-08-19T03:51:45;9.90;99.90
22450;DHT22;11392;57.390;-2.468;2022-08-19T03:54:14;9.90;99.90
22450;DHT22;11392;57.390;-2.468;2022-08-19T03:56:44;10.00;99.90
22450;DHT22;11392;57.390;-2.468;2022-08-19T03:59:18;9.80;99.90
22450;DHT22;11392;57.390;-2.468;2022-08-19T04:01:45;9.70;99.90
22450;DHT22;11392;57.390;-2.468;2022-08-19T04:04:13;9.60;99.90
22450;DHT22;11392;57.390;-2.468;2022-08-19T04:06:40;9.50;99.90
22450;DHT22;11392;57.390;-2.468;2022-08-19T04:09:09;9.40;99.90
22450;DHT22;11392;57.390;-2.468;2022-08-19T04:11:42;9.40;99.90
22450;DHT22;11392;57.390;-2.468;2022-08-19T04:14:18;9.40;99.90
22450;DHT22;11392;57.390;-2.468;2022-08-19T04:16:46;9.40;99.90
22450;DHT22;11392;57.390;-2.468;2022-08-19T04:19:15;9.40;99.90
22450;DHT22;11392;57.390;-2.468;2022-08-19T04:21:45;9.40;99.90
22450;DHT22;11392;57.390;-2.468;2022-08-19T04:24:12;9.40;99.90
22450;DHT22;11392;57.390;-2.468;2022-08-19T04:26:39;9.30;99.90
22450;DHT22;11392;57.390;-2.468;2022-08-19T04:29:14;9.30;99.90
22450;DHT22;11392;57.390;-2.468;2022-08-19T04:31:43;9.30;99.90
22450;DHT22;11392;57.390;-2.468;2022-08-19T04:34:14;9.20;99.90
22450;DHT22;11392;57.390;-2.468;2022-08-19T04:36:43;9.20;99.90
22450;DHT22;11392;57.390;-2.468;2022-08-19T04:39:15;9.30;99.90
22450;DHT22;11392;57.390;-2.468;2022-08-19T04:41:42;9.20;99.90
22450;DHT22;11392;57.390;-2.468;2022-08-19T04:44:30;9.20;99.90
22450;DHT22;11392;57.390;-2.468;2022-08-19T04:46:59;9.30;99.90
22450;DHT22;11392;57.390;-2.468;2022-08-19T04:49:27;9.30;99.90
22450;DHT22;11392;57.390;-2.468;2022-08-19T04:51:55;9.20;99.90
22450;DHT22;11392;57.390;-2.468;2022-08-19T04:54:24;9.20;99.90
22450;DHT22;11392;57.390;-2.468;2022-08-19T04:57:07;9.20;99.90
22450;DHT22;11392;57.390;-2.468;2022-08-19T04:59:38;9.20;99.90
22450;DHT22;11392;57.390;-2.468;2022-08-19T05:02:07;9.20;99.90
22450;DHT22;11392;57.390;-2.468;2022-08-19T05:04:35;9.20;99.90
22450;DHT22;11392;57.390;-2.468;2022-08-19T05:07:07;9.30;99.90
22450;DHT22;11392;57.390;-2.468;2022-08-19T05:09:34;9.40;99.90
22450;DHT22;11392;57.390;-2.468;2022-08-19T05:12:21;9.50;99.90
22450;DHT22;11392;57.390;-2.468;2022-08-19T05:14:55;9.60;99.90
22450;DHT22;11392;57.390;-2.468;2022-08-19T05:17:24;9.70;99.90
22450;DHT22;11392;57.390;-2.468;2022-08-19T05:19:55;9.70;99.90
22450;DHT22;11392;57.390;-2.468;2022-08-19T05:22:42;9.70;99.90
22450;DHT22;11392;57.390;-2.468;2022-08-19T05:25:14;9.80;99.90
22450;DHT22;11392;57.390;-2.468;2022-08-19T05:27:42;9.80;99.90
22450;DHT22;11392;57.390;-2.468;2022-08-19T05:30:10;9.80;99.90
22450;DHT22;11392;57.390;-2.468;2022-08-19T05:32:38;9.90;99.90
22450;DHT22;11392;57.390;-2.468;2022-08-19T05:35:06;9.90;99.90
22450;DHT22;11392;57.390;-2.468;2022-08-19T05:37:33;10.00;99.90
22450;DHT22;11392;57.390;-2.468;2022-08-19T05:40:00;10.00;99.90
22450;DHT22;11392;57.390;-2.468;2022-08-19T05:42:28;10.10;99.90
22450;DHT22;11392;57.390;-2.468;2022-08-19T05:44:55;10.10;99.90
22450;DHT22;11392;57.390;-2.468;2022-08-19T05:47:22;10.20;99.90
22450;DHT22;11392;57.390;-2.468;2022-08-19T05:49:49;10.30;99.90
22450;DHT22;11392;57.390;-2.468;2022-08-19T05:52:18;10.30;99.90
22450;DHT22;11392;57.390;-2.468;2022-08-19T05:54:52;10.30;99.90
22450;DHT22;11392;57.390;-2.468;2022-08-19T05:57:22;10.40;99.90
22450;DHT22;11392;57.390;-2.468;2022-08-19T05:59:50;10.40;99.90
22450;DHT22;11392;57.390;-2.468;2022-08-19T06:02:27;10.50;99.90
22450;DHT22;11392;57.390;-2.468;2022-08-19T06:04:54;10.60;99.90
22450;DHT22;11392;57.390;-2.468;2022-08-19T06:07:21;10.70;99.90
22450;DHT22;11392;57.390;-2.468;2022-08-19T06:09:48;10.80;99.90
22450;DHT22;11392;57.390;-2.468;2022-08-19T06:12:28;10.90;99.90
22450;DHT22;11392;57.390;-2.468;2022-08-19T06:14:59;11.10;99.90
22450;DHT22;11392;57.390;-2.468;2022-08-19T06:17:31;11.10;99.90
22450;DHT22;11392;57.390;-2.468;2022-08-19T06:19:58;11.30;99.90
22450;DHT22;11392;57.390;-2.468;2022-08-19T06:22:26;11.40;99.90
22450;DHT22;11392;57.390;-2.468;2022-08-19T06:24:55;11.70;99.90
22450;DHT22;11392;57.390;-2.468;2022-08-19T06:27:22;11.80;99.90
22450;DHT22;11392;57.390;-2.468;2022-08-19T06:29:49;12.00;99.90
22450;DHT22;11392;57.390;-2.468;2022-08-19T06:32:17;12.10;99.90
22450;DHT22;11392;57.390;-2.468;2022-08-19T06:34:45;12.20;99.90
22450;DHT22;11392;57.390;-2.468;2022-08-19T06:37:13;12.20;99.90
22450;DHT22;11392;57.390;-2.468;2022-08-19T06:39:42;12.40;99.90
22450;DHT22;11392;57.390;-2.468;2022-08-19T06:42:11;12.50;99.90
22450;DHT22;11392;57.390;-2.468;2022-08-19T06:44:42;12.60;99.90
22450;DHT22;11392;57.390;-2.468;2022-08-19T06:47:19;12.70;99.90
22450;DHT22;11392;57.390;-2.468;2022-08-19T06:49:56;13.00;99.90
22450;DHT22;11392;57.390;-2.468;2022-08-19T06:52:30;13.00;99.90
22450;DHT22;11392;57.390;-2.468;2022-08-19T06:55:01;13.10;99.90
22450;DHT22;11392;57.390;-2.468;2022-08-19T06:57:32;13.30;99.90
22450;DHT22;11392;57.390;-2.468;2022-08-19T06:59:59;13.40;99.90
22450;DHT22;11392;57.390;-2.468;2022-08-19T07:02:26;13.60;99.90
22450;DHT22;11392;57.390;-2.468;2022-08-19T07:04:54;13.70;99.90
22450;DHT22;11392;57.390;-2.468;2022-08-19T07:07:23;13.80;99.90
22450;DHT22;11392;57.390;-2.468;2022-08-19T07:09:50;13.90;99.90
22450;DHT22;11392;57.390;-2.468;2022-08-19T07:12:29;14.10;99.90
22450;DHT22;11392;57.390;-2.468;2022-08-19T07:14:58;14.30;99.90
22450;DHT22;11392;57.390;-2.468;2022-08-19T07:17:26;14.40;99.90
22450;DHT22;11392;57.390;-2.468;2022-08-19T07:19:53;14.40;99.90
22450;DHT22;11392;57.390;-2.468;2022-08-19T07:22:22;14.50;99.90
22450;DHT22;11392;57.390;-2.468;2022-08-19T07:24:52;14.80;99.90
22450;DHT22;11392;57.390;-2.468;2022-08-19T07:27:19;15.10;99.90
22450;DHT22;11392;57.390;-2.468;2022-08-19T07:29:54;15.30;99.90
22450;DHT22;11392;57.390;-2.468;2022-08-19T07:32:25;15.40;99.90
22450;DHT22;11392;57.390;-2.468;2022-08-19T07:34:55;15.50;99.90
22450;DHT22;11392;57.390;-2.468;2022-08-19T07:37:23;15.70;99.90
22450;DHT22;11392;57.390;-2.468;2022-08-19T07:39:59;15.90;99.90
22450;DHT22;11392;57.390;-2.468;2022-08-19T07:42:27;16.10;99.90
22450;DHT22;11392;57.390;-2.468;2022-08-19T07:44:57;16.30;99.90
22450;DHT22;11392;57.390;-2.468;2022-08-19T07:47:24;16.50;99.90
22450;DHT22;11392;57.390;-2.468;2022-08-19T07:50:11;16.70;99.90
22450;DHT22;11392;57.390;-2.468;2022-08-19T07:52:39;16.80;99.90
22450;DHT22;11392;57.390;-2.468;2022-08-19T07:55:08;16.90;99.90
22450;DHT22;11392;57.390;-2.468;2022-08-19T07:57:56;17.20;99.90
22450;DHT22;11392;57.390;-2.468;2022-08-19T08:00:23;17.30;99.90
22450;DHT22;11392;57.390;-2.468;2022-08-19T08:02:52;17.40;99.90
22450;DHT22;11392;57.390;-2.468;2022-08-19T08:05:22;17.50;99.90
22450;DHT22;11392;57.390;-2.468;2022-08-19T08:08:11;17.70;99.90
22450;DHT22;11392;57.390;-2.468;2022-08-19T08:10:53;17.70;99.90
22450;DHT22;11392;57.390;-2.468;2022-08-19T08:13:24;17.70;99.90
22450;DHT22;11392;57.390;-2.468;2022-08-19T08:15:52;17.80;99.90
22450;DHT22;11392;57.390;-2.468;2022-08-19T08:18:22;18.00;99.90
22450;DHT22;11392;57.390;-2.468;2022-08-19T08:20:54;18.30;99.90
22450;DHT22;11392;57.390;-2.468;2022-08-19T08:23:22;18.50;99.90
22450;DHT22;11392;57.390;-2.468;2022-08-19T08:25:49;18.30;99.90
22450;DHT22;11392;57.390;-2.468;2022-08-19T08:28:17;17.80;99.90
22450;DHT22;11392;57.390;-2.468;2022-08-19T08:30:45;17.40;99.90
22450;DHT22;11392;57.390;-2.468;2022-08-19T08:33:20;17.60;99.90
22450;DHT22;11392;57.390;-2.468;2022-08-19T08:36:07;17.90;99.90
22450;DHT22;11392;57.390;-2.468;2022-08-19T08:38:35;18.10;99.90
22450;DHT22;11392;57.390;-2.468;2022-08-19T08:41:18;17.90;99.90
22450;DHT22;11392;57.390;-2.468;2022-08-19T08:43:51;18.20;99.90
22450;DHT22;11392;57.390;-2.468;2022-08-19T08:51:37;18.60;99.90
22450;DHT22;11392;57.390;-2.468;2022-08-19T08:54:11;18.80;99.90
22450;DHT22;11392;57.390;-2.468;2022-08-19T08:56:41;18.70;99.90
22450;DHT22;11392;57.390;-2.468;2022-08-19T08:59:30;18.30;99.90
22450;DHT22;11392;57.390;-2.468;2022-08-19T09:01:59;18.00;99.90
22450;DHT22;11392;57.390;-2.468;2022-08-19T09:04:27;18.20;99.90
22450;DHT22;11392;57.390;-2.468;2022-08-19T09:07:02;17.80;99.90
22450;DHT22;11392;57.390;-2.468;2022-08-19T09:10:04;17.50;99.90
22450;DHT22;11392;57.390;-2.468;2022-08-19T09:15:30;18.80;99.90
22450;DHT22;11392;57.390;-2.468;2022-08-19T09:18:04;19.20;99.90
22450;DHT22;11392;57.390;-2.468;2022-08-19T09:20:33;19.50;99.90
22450;DHT22;11392;57.390;-2.468;2022-08-19T09:23:00;19.80;99.90
22450;DHT22;11392;57.390;-2.468;2022-08-19T09:25:27;19.80;99.90
22450;DHT22;11392;57.390;-2.468;2022-08-19T09:27:55;20.00;99.90
22450;DHT22;11392;57.390;-2.468;2022-08-19T09:30:30;20.20;99.90
22450;DHT22;11392;57.390;-2.468;2022-08-19T09:32:59;20.30;99.90
22450;DHT22;11392;57.390;-2.468;2022-08-19T09:35:28;20.60;99.90
22450;DHT22;11392;57.390;-2.468;2022-08-19T09:37:56;20.60;99.90
22450;DHT22;11392;57.390;-2.468;2022-08-19T09:40:27;20.70;99.90
22450;DHT22;11392;57.390;-2.468;2022-08-19T09:42:56;20.80;99.90
22450;DHT22;11392;57.390;-2.468;2022-08-19T09:45:24;21.00;99.90
22450;DHT22;11392;57.390;-2.468;2022-08-19T09:47:52;21.30;99.90
22450;DHT22;11392;57.390;-2.468;2022-08-19T09:50:22;21.20;99.90
22450;DHT22;11392;57.390;-2.468;2022-08-19T09:52:50;21.40;99.90
22450;DHT22;11392;57.390;-2.468;2022-08-19T09:55:23;21.70;99.90
22450;DHT22;11392;57.390;-2.468;2022-08-19T09:57:56;21.70;99.90
22450;DHT22;11392;57.390;-2.468;2022-08-19T10:00:23;21.60;99.90
22450;DHT22;11392;57.390;-2.468;2022-08-19T10:02:51;21.70;99.90
22450;DHT22;11392;57.390;-2.468;2022-08-19T10:05:19;21.90;99.90
22450;DHT22;11392;57.390;-2.468;2022-08-19T10:08:08;22.20;99.90
22450;DHT22;11392;57.390;-2.468;2022-08-19T10:10:40;22.40;99.90
22450;DHT22;11392;57.390;-2.468;2022-08-19T10:13:14;22.60;99.90
22450;DHT22;11392;57.390;-2.468;2022-08-19T10:15:41;22.70;99.90
22450;DHT22;11392;57.390;-2.468;2022-08-19T10:18:14;22.60;99.90
22450;DHT22;11392;57.390;-2.468;2022-08-19T10:20:46;22.90;99.90
22450;DHT22;11392;57.390;-2.468;2022-08-19T10:23:19;23.00;99.90
22450;DHT22;11392;57.390;-2.468;2022-08-19T10:25:47;23.20;99.90
22450;DHT22;11392;57.390;-2.468;2022-08-19T10:28:14;23.40;99.90
22450;DHT22;11392;57.390;-2.468;2022-08-19T10:30:45;23.30;99.90
22450;DHT22;11392;57.390;-2.468;2022-08-19T10:33:12;23.30;99.90
22450;DHT22;11392;57.390;-2.468;2022-08-19T10:35:40;23.30;99.90
22450;DHT22;11392;57.390;-2.468;2022-08-19T10:38:23;23.50;99.90
22450;DHT22;11392;57.390;-2.468;2022-08-19T10:40:58;23.30;99.90
22450;DHT22;11392;57.390;-2.468;2022-08-19T10:43:25;23.00;99.90
22450;DHT22;11392;57.390;-2.468;2022-08-19T10:45:53;23.00;99.90
22450;DHT22;11392;57.390;-2.468;2022-08-19T10:48:23;22.80;99.90
22450;DHT22;11392;57.390;-2.468;2022-08-19T10:50:50;22.80;99.90
22450;DHT22;11392;57.390;-2.468;2022-08-19T10:53:35;22.90;99.90
22450;DHT22;11392;57.390;-2.468;2022-08-19T10:56:02;23.10;99.90
22450;DHT22;11392;57.390;-2.468;2022-08-19T10:58:48;23.20;99.90
22450;DHT22;11392;57.390;-2.468;2022-08-19T11:01:15;23.50;99.90
22450;DHT22;11392;57.390;-2.468;2022-08-19T11:03:42;23.70;99.90
22450;DHT22;11392;57.390;-2.468;2022-08-19T11:06:12;23.80;99.90
22450;DHT22;11392;57.390;-2.468;2022-08-19T11:08:39;23.70;99.90
22450;DHT22;11392;57.390;-2.468;2022-08-19T11:11:07;23.90;99.90
22450;DHT22;11392;57.390;-2.468;2022-08-19T11:13:37;24.30;99.90
22450;DHT22;11392;57.390;-2.468;2022-08-19T11:16:08;24.40;99.90
22450;DHT22;11392;57.390;-2.468;2022-08-19T11:18:40;24.70;99.90
22450;DHT22;11392;57.390;-2.468;2022-08-19T11:21:16;24.80;99.90
22450;DHT22;11392;57.390;-2.468;2022-08-19T11:23:44;24.50;99.90
22450;DHT22;11392;57.390;-2.468;2022-08-19T11:26:12;24.40;99.90
22450;DHT22;11392;57.390;-2.468;2022-08-19T11:28:39;24.00;99.90
22450;DHT22;11392;57.390;-2.468;2022-08-19T11:31:11;23.50;99.90
22450;DHT22;11392;57.390;-2.468;2022-08-19T11:33:39;23.30;99.90
22450;DHT22;11392;57.390;-2.468;2022-08-19T11:36:07;23.40;99.90
22450;DHT22;11392;57.390;-2.468;2022-08-19T11:38:35;23.70;99.90
22450;DHT22;11392;57.390;-2.468;2022-08-19T11:41:05;24.20;99.90
22450;DHT22;11392;57.390;-2.468;2022-08-19T11:43:34;24.70;99.90
22450;DHT22;11392;57.390;-2.468;2022-08-19T11:46:08;24.80;99.90
22450;DHT22;11392;57.390;-2.468;2022-08-19T11:48:37;24.90;99.90
22450;DHT22;11392;57.390;-2.468;2022-08-19T11:51:08;25.00;99.90
22450;DHT22;11392;57.390;-2.468;2022-08-19T11:53:36;24.80;99.90
22450;DHT22;11392;57.390;-2.468;2022-08-19T11:56:04;24.40;99.90
22450;DHT22;11392;57.390;-2.468;2022-08-19T11:58:31;23.90;99.90
22450;DHT22;11392;57.390;-2.468;2022-08-19T12:00:58;23.20;99.90
22450;DHT22;11392;57.390;-2.468;2022-08-19T12:03:25;22.60;99.90
22450;DHT22;11392;57.390;-2.468;2022-08-19T12:05:53;22.30;99.90
22450;DHT22;11392;57.390;-2.468;2022-08-19T12:08:20;21.90;99.90
22450;DHT22;11392;57.390;-2.468;2022-08-19T12:10:47;21.80;99.90
22450;DHT22;11392;57.390;-2.468;2022-08-19T12:13:14;21.40;99.90
22450;DHT22;11392;57.390;-2.468;2022-08-19T12:15:46;21.30;99.90
22450;DHT22;11392;57.390;-2.468;2022-08-19T12:18:14;21.50;99.90
22450;DHT22;11392;57.390;-2.468;2022-08-19T12:20:42;21.50;99.90
22450;DHT22;11392;57.390;-2.468;2022-08-19T12:23:10;21.60;99.90
22450;DHT22;11392;57.390;-2.468;2022-08-19T12:25:42;21.90;99.90
22450;DHT22;11392;57.390;-2.468;2022-08-19T12:28:18;22.00;99.90
22450;DHT22;11392;57.390;-2.468;2022-08-19T12:30:46;22.30;99.90
22450;DHT22;11392;57.390;-2.468;2022-08-19T12:33:13;22.70;99.90
22450;DHT22;11392;57.390;-2.468;2022-08-19T12:35:42;22.90;99.90
22450;DHT22;11392;57.390;-2.468;2022-08-19T12:38:14;23.40;99.90
22450;DHT22;11392;57.390;-2.468;2022-08-19T12:40:41;23.80;99.90
22450;DHT22;11392;57.390;-2.468;2022-08-19T12:43:11;24.30;99.90
22450;DHT22;11392;57.390;-2.468;2022-08-19T12:45:38;24.60;99.90
22450;DHT22;11392;57.390;-2.468;2022-08-19T12:48:06;24.90;99.90
22450;DHT22;11392;57.390;-2.468;2022-08-19T12:50:53;24.50;99.90
22450;DHT22;11392;57.390;-2.468;2022-08-19T12:53:20;24.10;99.90
22450;DHT22;11392;57.390;-2.468;2022-08-19T12:55:47;23.50;99.90
22450;DHT22;11392;57.390;-2.468;2022-08-19T12:58:14;23.10;99.90
22450;DHT22;11392;57.390;-2.468;2022-08-19T13:00:41;22.60;99.90
22450;DHT22;11392;57.390;-2.468;2022-08-19T13:03:08;22.00;99.90
22450;DHT22;11392;57.390;-2.468;2022-08-19T13:05:35;21.50;99.90
22450;DHT22;11392;57.390;-2.468;2022-08-19T13:08:02;21.10;99.90
22450;DHT22;11392;57.390;-2.468;2022-08-19T13:10:32;20.90;99.90
22450;DHT22;11392;57.390;-2.468;2022-08-19T13:13:05;20.60;99.90
22450;DHT22;11392;57.390;-2.468;2022-08-19T13:15:38;20.60;99.90
22450;DHT22;11392;57.390;-2.468;2022-08-19T13:18:08;21.00;99.90
22450;DHT22;11392;57.390;-2.468;2022-08-19T13:20:37;21.50;99.90
22450;DHT22;11392;57.390;-2.468;2022-08-19T13:23:04;22.20;99.90
22450;DHT22;11392;57.390;-2.468;2022-08-19T13:25:31;22.20;99.90
22450;DHT22;11392;57.390;-2.468;2022-08-19T13:27:59;21.90;99.90
22450;DHT22;11392;57.390;-2.468;2022-08-19T13:30:27;21.50;99.90
22450;DHT22;11392;57.390;-2.468;2022-08-19T13:33:13;21.20;99.90
22450;DHT22;11392;57.390;-2.468;2022-08-19T13:35:51;21.00;99.90
22450;DHT22;11392;57.390;-2.468;2022-08-19T13:38:24;20.80;99.90
22450;DHT22;11392;57.390;-2.468;2022-08-19T13:40:53;20.60;99.90
22450;DHT22;11392;57.390;-2.468;2022-08-19T13:43:23;20.60;99.90
22450;DHT22;11392;57.390;-2.468;2022-08-19T13:45:53;20.60;99.90
22450;DHT22;11392;57.390;-2.468;2022-08-19T13:48:23;20.50;99.90
22450;DHT22;11392;57.390;-2.468;2022-08-19T13:50:50;20.40;99.90
22450;DHT22;11392;57.390;-2.468;2022-08-19T13:53:17;20.20;99.90
22450;DHT22;11392;57.390;-2.468;2022-08-19T13:55:45;20.10;99.90
22450;DHT22;11392;57.390;-2.468;2022-08-19T13:58:12;20.10;99.90
22450;DHT22;11392;57.390;-2.468;2022-08-19T14:00:43;20.10;99.90
22450;DHT22;11392;57.390;-2.468;2022-08-19T14:03:11;19.90;99.90
22450;DHT22;11392;57.390;-2.468;2022-08-19T14:05:38;19.60;99.90
22450;DHT22;11392;57.390;-2.468;2022-08-19T14:08:06;19.50;99.90
22450;DHT22;11392;57.390;-2.468;2022-08-19T14:10:33;19.60;99.90
22450;DHT22;11392;57.390;-2.468;2022-08-19T14:13:02;19.70;99.90
22450;DHT22;11392;57.390;-2.468;2022-08-19T14:15:30;19.60;99.90
22450;DHT22;11392;57.390;-2.468;2022-08-19T14:17:57;19.60;99.90
22450;DHT22;11392;57.390;-2.468;2022-08-19T14:20:25;19.60;99.90
22450;DHT22;11392;57.390;-2.468;2022-08-19T14:22:53;19.60;99.90
22450;DHT22;11392;57.390;-2.468;2022-08-19T14:25:25;19.50;99.90
22450;DHT22;11392;57.390;-2.468;2022-08-19T14:27:52;19.50;99.90
22450;DHT22;11392;57.390;-2.468;2022-08-19T14:30:23;19.60;99.90
22450;DHT22;11392;57.390;-2.468;2022-08-19T14:32:54;19.80;99.90
22450;DHT22;11392;57.390;-2.468;2022-08-19T14:35:22;20.20;99.90
22450;DHT22;11392;57.390;-2.468;2022-08-19T14:37:50;20.40;99.90
22450;DHT22;11392;57.390;-2.468;2022-08-19T14:40:19;20.20;99.90
22450;DHT22;11392;57.390;-2.468;2022-08-19T14:43:04;20.00;99.90
22450;DHT22;11392;57.390;-2.468;2022-08-19T14:45:32;19.80;99.90
22450;DHT22;11392;57.390;-2.468;2022-08-19T14:48:02;19.50;99.90
22450;DHT22;11392;57.390;-2.468;2022-08-19T14:50:30;19.30;99.90
22450;DHT22;11392;57.390;-2.468;2022-08-19T14:52:59;19.10;99.90
22450;DHT22;11392;57.390;-2.468;2022-08-19T14:55:26;19.00;99.90
22450;DHT22;11392;57.390;-2.468;2022-08-19T14:57:53;19.70;99.90
22450;DHT22;11392;57.390;-2.468;2022-08-19T15:00:24;20.50;99.90
22450;DHT22;11392;57.390;-2.468;2022-08-19T15:02:52;20.70;99.90
22450;DHT22;11392;57.390;-2.468;2022-08-19T15:05:21;21.00;99.90
22450;DHT22;11392;57.390;-2.468;2022-08-19T15:07:48;21.00;99.90
22450;DHT22;11392;57.390;-2.468;2022-08-19T15:10:16;21.30;99.90
22450;DHT22;11392;57.390;-2.468;2022-08-19T15:12:43;21.10;99.90
22450;DHT22;11392;57.390;-2.468;2022-08-19T15:15:15;21.00;99.90
22450;DHT22;11392;57.390;-2.468;2022-08-19T15:17:44;21.10;99.90
22450;DHT22;11392;57.390;-2.468;2022-08-19T15:20:19;20.90;99.90
22450;DHT22;11392;57.390;-2.468;2022-08-19T15:22:47;20.60;99.90
22450;DHT22;11392;57.390;-2.468;2022-08-19T15:25:17;20.50;99.90
22450;DHT22;11392;57.390;-2.468;2022-08-19T15:27:45;20.40;99.90
22450;DHT22;11392;57.390;-2.468;2022-08-19T15:30:20;20.20;99.90
22450;DHT22;11392;57.390;-2.468;2022-08-19T15:32:48;20.10;99.90
22450;DHT22;11392;57.390;-2.468;2022-08-19T15:35:16;20.10;99.90
22450;DHT22;11392;57.390;-2.468;2022-08-19T15:37:48;20.00;99.90
22450;DHT22;11392;57.390;-2.468;2022-08-19T15:40:15;20.30;99.90
22450;DHT22;11392;57.390;-2.468;2022-08-19T15:42:42;20.70;99.90
22450;DHT22;11392;57.390;-2.468;2022-08-19T15:45:11;20.60;99.90
22450;DHT22;11392;57.390;-2.468;2022-08-19T15:47:39;20.40;99.90
22450;DHT22;11392;57.390;-2.468;2022-08-19T15:50:14;20.30;99.90